Time;durP1;ratioP1;P1;durP2;ratioP2;P2;SDS_P1;SDS_P2;PMS_P1;PMS_P2;Temp;Humidity;BMP_temperature;BMP_pressure;BME280_temperature;BME280_humidity;BME280_pressure;Samples;Min_cycle;Max_cycle;Signal;HPM_P1;HPM_P2
2022/09/23 00:01:45;;;;;;;19.67;7.05;;;5.80;99.90;;;;;;5043588;28;20028;-79
2022/09/23 00:04:10;;;;;;;17.45;7.72;;;5.70;99.90;;;;;;5040612;28;20021;-79
2022/09/23 00:06:36;;;;;;;14.50;7.68;;;5.60;99.90;;;;;;5046015;28;20043;-79
2022/09/23 00:09:02;;;;;;;14.63;6.63;;;5.60;99.90;;;;;;5033957;28;20048;-79
2022/09/23 00:11:28;;;;;;;15.30;7.18;;;5.70;99.90;;;;;;5044139;28;20070;-79
2022/09/23 00:13:55;;;;;;;16.55;7.53;;;5.60;99.90;;;;;;5048248;28;20489;-78
2022/09/23 00:16:32;;;;;;;13.35;7.20;;;5.60;99.90;;;;;;5048509;28;20279;-79
2022/09/23 00:18:59;;;;;;;13.68;7.38;;;5.50;99.90;;;;;;5046785;28;20028;-78
2022/09/23 00:21:25;;;;;;;16.73;7.65;;;5.50;99.90;;;;;;5037186;28;20733;-78
2022/09/23 00:23:51;;;;;;;17.23;7.40;;;5.50;99.90;;;;;;5048564;28;20026;-78
2022/09/23 00:26:18;;;;;;;18.00;7.40;;;5.50;99.90;;;;;;5048090;28;20468;-79
2022/09/23 00:28:43;;;;;;;15.65;6.55;;;5.40;99.90;;;;;;5048104;28;20045;-79
2022/09/23 00:31:20;;;;;;;17.30;7.35;;;5.40;99.90;;;;;;5047842;28;20086;-79
2022/09/23 00:33:45;;;;;;;14.77;7.18;;;5.50;99.90;;;;;;5040191;28;20120;-79
2022/09/23 00:36:14;;;;;;;15.15;6.82;;;5.40;99.90;;;;;;5047090;28;20112;-79
2022/09/23 00:38:40;;;;;;;16.60;8.05;;;5.30;99.90;;;;;;5048189;28;20040;-78
2022/09/23 00:41:05;;;;;;;14.55;7.25;;;5.40;99.90;;;;;;5047953;28;20033;-78
2022/09/23 00:43:53;;;;;;;16.40;6.72;;;5.30;99.90;;;;;;5046695;28;20039;-78
2022/09/23 00:46:20;;;;;;;13.50;6.78;;;5.40;99.90;;;;;;5048387;28;20029;-78
2022/09/23 00:48:49;;;;;;;17.65;7.57;;;5.30;99.90;;;;;;5047924;28;20029;-78
2022/09/23 00:51:18;;;;;;;16.73;7.25;;;5.30;99.90;;;;;;5037996;28;20527;-79
2022/09/23 00:53:47;;;;;;;13.70;6.63;;;5.30;99.90;;;;;;5044494;28;20476;-79
2022/09/23 00:56:13;;;;;;;15.35;7.05;;;5.30;99.90;;;;;;5057726;28;20040;-79
2022/09/23 00:58:43;;;;;;;13.35;6.65;;;5.30;99.90;;;;;;5035508;28;20037;-78
2022/09/23 01:01:10;;;;;;;11.07;6.28;;;5.20;99.90;;;;;;5030135;28;20111;-79
2022/09/23 01:03:36;;;;;;;13.55;6.45;;;5.20;99.90;;;;;;5037128;28;20039;-78
2022/09/23 01:06:01;;;;;;;16.98;8.07;;;5.20;99.90;;;;;;5046715;28;20028;-79
2022/09/23 01:08:27;;;;;;;16.02;7.30;;;5.10;99.90;;;;;;5031190;28;20385;-78
2022/09/23 01:11:01;;;;;;;12.98;6.20;;;5.20;99.90;;;;;;5043400;28;20021;-78
2022/09/23 01:13:50;;;;;;;11.15;6.15;;;5.10;99.90;;;;;;5033924;28;20425;-79
2022/09/23 01:16:53;;;;;;;13.40;5.90;;;5.10;99.90;;;;;;5047159;28;20198;-79
2022/09/23 01:19:21;;;;;;;14.20;7.38;;;5.00;99.90;;;;;;4987736;28;20037;-78
2022/09/23 01:21:57;;;;;;;15.35;7.22;;;5.00;99.90;;;;;;5044098;28;20033;-79
2022/09/23 01:24:56;;;;;;;12.73;6.65;;;5.00;99.90;;;;;;5046191;28;20470;-79
2022/09/23 01:27:55;;;;;;;15.20;7.03;;;4.90;99.90;;;;;;5034261;28;20037;-78
2022/09/23 01:30:42;;;;;;;14.10;6.72;;;5.00;99.90;;;;;;5047320;28;20395;-78
2022/09/23 01:33:13;;;;;;;10.88;6.13;;;5.00;99.90;;;;;;5047367;28;20021;-79
2022/09/23 01:36:03;;;;;;;11.57;5.82;;;5.10;99.90;;;;;;5046630;28;20055;-78
2022/09/23 01:38:45;;;;;;;14.40;5.45;;;5.00;99.90;;;;;;5043793;28;20043;-78
2022/09/23 01:41:35;;;;;;;11.43;5.40;;;5.00;99.90;;;;;;5033608;28;20037;-79
2022/09/23 01:44:41;;;;;;;10.27;5.80;;;4.80;99.90;;;;;;5043329;28;20043;-78
2022/09/23 01:47:25;;;;;;;8.57;5.03;;;4.90;99.90;;;;;;5036355;28;20069;-79
2022/09/23 01:50:54;;;;;;;14.07;5.50;;;4.80;99.90;;;;;;5042018;28;20036;-78
2022/09/23 01:52:50;;;;;;;10.77;5.82;;;4.80;99.90;;;;;;5041875;28;20074;-78
2022/09/23 01:55:24;;;;;;;13.63;6.00;;;4.90;99.90;;;;;;5045191;28;20029;-78
2022/09/23 01:58:10;;;;;;;10.93;5.35;;;4.80;99.90;;;;;;5041604;28;20022;-78
2022/09/23 02:00:42;;;;;;;9.68;5.20;;;4.80;99.90;;;;;;5042477;28;20040;-79
2022/09/23 02:03:15;;;;;;;8.82;5.18;;;4.90;99.90;;;;;;5047633;28;20037;-78
2022/09/23 02:05:50;;;;;;;9.27;4.78;;;4.80;99.90;;;;;;5042951;28;20037;-78
2022/09/23 02:08:26;;;;;;;8.98;4.88;;;4.90;99.90;;;;;;5033216;28;20033;-78
2022/09/23 02:10:56;;;;;;;10.85;4.82;;;4.70;99.90;;;;;;5047672;28;20097;-78
2022/09/23 02:13:28;;;;;;;8.52;5.18;;;4.70;99.90;;;;;;5043887;28;20020;-78
2022/09/23 02:16:00;;;;;;;10.20;4.95;;;4.70;99.90;;;;;;5050612;28;20032;-78
2022/09/23 02:18:29;;;;;;;10.50;5.10;;;4.70;99.90;;;;;;5047880;28;20037;-78
2022/09/23 02:20:59;;;;;;;12.88;4.93;;;4.70;99.90;;;;;;5038133;28;20036;-79
2022/09/23 02:23:32;;;;;;;7.75;3.95;;;4.70;99.90;;;;;;5049449;28;20053;-78
2022/09/23 02:26:21;;;;;;;13.00;4.50;;;4.70;99.90;;;;;;5048361;28;20025;-79
2022/09/23 02:29:00;;;;;;;12.15;4.90;;;4.60;99.90;;;;;;5036550;28;20056;-79
2022/09/23 02:31:46;;;;;;;9.57;4.55;;;4.60;99.90;;;;;;5037900;28;20080;-78
2022/09/23 02:34:20;;;;;;;9.18;4.30;;;4.50;99.90;;;;;;5029478;28;20017;-78
2022/09/23 02:37:09;;;;;;;8.02;4.18;;;4.60;99.90;;;;;;5030888;28;20108;-78
2022/09/23 02:39:50;;;;;;;7.47;4.10;;;4.60;99.90;;;;;;5035355;28;20043;-78
2022/09/23 02:42:22;;;;;;;9.20;4.47;;;4.50;99.90;;;;;;5042600;28;20373;-78
2022/09/23 02:44:47;;;;;;;9.25;4.50;;;4.50;99.90;;;;;;5035689;28;20029;-78
2022/09/23 02:47:13;;;;;;;9.45;3.75;;;4.50;99.90;;;;;;5030854;28;20031;-78
2022/09/23 02:49:39;;;;;;;7.53;4.13;;;4.50;99.90;;;;;;5047721;28;20029;-78
2022/09/23 02:52:06;;;;;;;8.98;3.92;;;4.60;99.90;;;;;;5028347;28;20017;-78
2022/09/23 02:54:32;;;;;;;7.18;3.92;;;4.60;99.90;;;;;;5038854;28;20035;-78
2022/09/23 02:57:01;;;;;;;10.25;4.13;;;4.50;99.90;;;;;;5043317;28;20067;-78
2022/09/23 02:59:28;;;;;;;9.55;4.85;;;4.50;99.90;;;;;;5030682;28;20025;-78
2022/09/23 03:02:08;;;;;;;9.63;4.22;;;4.50;99.90;;;;;;5039155;28;20037;-79
2022/09/23 03:05:17;;;;;;;9.32;4.40;;;4.40;99.90;;;;;;5045999;28;20114;-78
2022/09/23 03:08:06;;;;;;;7.13;3.83;;;4.10;99.90;;;;;;5050104;28;20112;-79
2022/09/23 03:10:37;;;;;;;7.35;4.13;;;4.20;99.90;;;;;;5049790;28;20518;-78
2022/09/23 03:13:34;;;;;;;8.80;4.20;;;4.20;99.90;;;;;;5049596;28;20055;-79
2022/09/23 03:16:23;;;;;;;7.07;4.57;;;4.10;99.90;;;;;;5042737;28;20036;-78
2022/09/23 03:19:14;;;;;;;8.10;3.83;;;4.20;99.90;;;;;;5040647;28;20037;-78
2022/09/23 03:21:44;;;;;;;11.60;4.27;;;4.20;99.90;;;;;;5029809;28;20083;-78
2022/09/23 03:24:13;;;;;;;8.00;3.85;;;4.10;99.90;;;;;;5029444;28;20026;-78
2022/09/23 03:26:42;;;;;;;6.95;3.78;;;4.20;99.90;;;;;;5047052;28;20513;-78
2022/09/23 03:29:10;;;;;;;7.88;3.70;;;4.20;99.90;;;;;;5048938;28;20483;-78
2022/09/23 03:31:38;;;;;;;6.43;3.53;;;4.20;99.90;;;;;;5050000;28;20222;-79
2022/09/23 03:34:12;;;;;;;8.85;4.22;;;4.20;99.90;;;;;;5047408;28;20025;-78
2022/09/23 03:37:09;;;;;;;7.72;3.75;;;4.20;99.90;;;;;;5029939;28;20021;-78
2022/09/23 03:39:40;;;;;;;6.63;3.25;;;4.10;99.90;;;;;;5049264;28;20040;-78
2022/09/23 03:42:14;;;;;;;6.90;3.83;;;4.10;99.90;;;;;;5050063;28;20059;-79
2022/09/23 03:44:43;;;;;;;8.40;3.90;;;4.10;99.90;;;;;;5040328;28;20029;-78
2022/09/23 03:47:09;;;;;;;9.48;3.55;;;4.20;99.90;;;;;;5038829;28;20533;-78
2022/09/23 03:49:38;;;;;;;9.30;3.13;;;4.20;99.90;;;;;;5040840;28;20061;-78
2022/09/23 03:52:03;;;;;;;7.35;3.83;;;4.20;99.90;;;;;;5047807;28;20492;-78
2022/09/23 03:54:29;;;;;;;8.15;3.92;;;4.10;99.90;;;;;;5047381;28;20377;-78
2022/09/23 03:56:58;;;;;;;8.52;3.90;;;4.10;99.90;;;;;;5047625;28;20079;-78
2022/09/23 03:59:24;;;;;;;9.13;3.22;;;4.10;99.90;;;;;;5042507;28;20021;-78
2022/09/23 04:01:50;;;;;;;12.25;3.67;;;4.00;99.90;;;;;;5046552;28;20043;-78
2022/09/23 04:04:16;;;;;;;6.05;3.33;;;3.90;99.90;;;;;;5029055;28;20065;-78
2022/09/23 04:06:41;;;;;;;6.78;3.80;;;3.90;99.90;;;;;;5029318;28;20017;-78
2022/09/23 04:09:07;;;;;;;6.57;3.33;;;3.80;99.90;;;;;;5045567;28;20036;-78
2022/09/23 04:11:32;;;;;;;8.27;3.50;;;3.80;99.90;;;;;;5048715;28;20074;-78
2022/09/23 04:13:58;;;;;;;6.70;2.80;;;4.00;99.90;;;;;;5043253;28;20032;-78
2022/09/23 04:16:24;;;;;;;7.32;3.08;;;4.00;99.90;;;;;;5041955;28;20071;-78
2022/09/23 04:18:50;;;;;;;6.55;3.50;;;4.00;99.90;;;;;;5046685;28;20028;-78
2022/09/23 04:21:15;;;;;;;6.75;3.63;;;4.00;99.90;;;;;;5040909;28;20036;-78
2022/09/23 04:23:41;;;;;;;7.22;3.20;;;3.90;99.90;;;;;;5033435;28;20025;-79
2022/09/23 04:26:06;;;;;;;7.07;3.17;;;3.80;99.90;;;;;;5039683;28;20388;-77
2022/09/23 04:28:33;;;;;;;5.43;2.88;;;3.70;99.90;;;;;;5041871;28;20025;-79
2022/09/23 04:31:01;;;;;;;7.82;3.05;;;3.80;99.90;;;;;;5042427;28;20113;-79
2022/09/23 04:33:27;;;;;;;5.72;2.85;;;3.90;99.90;;;;;;5047092;28;20032;-79
2022/09/23 04:35:54;;;;;;;6.18;2.90;;;3.90;99.90;;;;;;5041614;28;20383;-79
2022/09/23 04:38:20;;;;;;;5.30;3.08;;;3.90;99.90;;;;;;5043050;28;20479;-79
2022/09/23 04:40:46;;;;;;;9.35;3.20;;;3.90;99.90;;;;;;5046989;28;20037;-77
2022/09/23 04:43:13;;;;;;;8.27;3.58;;;3.90;99.90;;;;;;5040509;28;20025;-77
2022/09/23 04:45:39;;;;;;;6.22;2.90;;;3.90;99.90;;;;;;5043200;28;20029;-78
2022/09/23 04:48:04;;;;;;;5.30;2.85;;;3.90;99.90;;;;;;5045025;28;20021;-82
2022/09/23 04:50:32;;;;;;;7.85;3.00;;;3.90;99.90;;;;;;5040530;28;20140;-82
2022/09/23 04:52:58;;;;;;;5.88;3.28;;;3.90;99.90;;;;;;5041557;28;20103;-81
2022/09/23 04:55:23;;;;;;;5.95;3.20;;;3.80;99.90;;;;;;5034831;28;20112;-81
2022/09/23 04:57:49;;;;;;;3.83;2.58;;;3.70;99.90;;;;;;5045813;28;20064;-81
2022/09/23 05:00:15;;;;;;;6.63;3.42;;;3.90;99.90;;;;;;5031497;28;20033;-81
2022/09/23 05:02:49;;;;;;;5.53;3.00;;;3.90;99.90;;;;;;5041029;28;20029;-81
2022/09/23 05:05:19;;;;;;;5.57;3.00;;;3.90;99.90;;;;;;5045801;28;20498;-81
2022/09/23 05:07:44;;;;;;;5.13;3.35;;;3.90;99.90;;;;;;5047343;28;20132;-81
2022/09/23 05:10:10;;;;;;;5.57;3.05;;;3.90;99.90;;;;;;5046109;28;20112;-82
2022/09/23 05:12:35;;;;;;;5.18;3.20;;;3.80;99.90;;;;;;5047838;28;20052;-81
2022/09/23 05:15:01;;;;;;;4.75;2.92;;;4.00;99.90;;;;;;5041049;28;20036;-81
2022/09/23 05:17:30;;;;;;;5.38;3.03;;;4.00;99.90;;;;;;5027349;28;20056;-81
2022/09/23 05:19:56;;;;;;;4.55;2.65;;;4.10;99.90;;;;;;5026002;28;20083;-81
2022/09/23 05:22:22;;;;;;;6.45;2.53;;;4.10;99.90;;;;;;5027622;28;20026;-81
2022/09/23 05:24:47;;;;;;;7.00;2.90;;;4.10;99.90;;;;;;5033023;28;20043;-81
2022/09/23 05:27:13;;;;;;;5.75;2.58;;;4.10;99.90;;;;;;5049519;28;20064;-83
2022/09/23 05:29:39;;;;;;;5.85;2.58;;;4.10;99.90;;;;;;5050409;28;20075;-81
2022/09/23 05:32:04;;;;;;;6.90;3.03;;;4.00;99.90;;;;;;5035894;28;20756;-81
2022/09/23 05:34:31;;;;;;;4.60;2.88;;;4.10;99.90;;;;;;5030388;28;20044;-81
2022/09/23 05:36:57;;;;;;;3.85;3.03;;;4.20;99.90;;;;;;5034147;28;20025;-81
2022/09/23 05:39:51;;;;;;;5.15;2.78;;;4.30;99.90;;;;;;5049773;28;20101;-81
2022/09/23 05:42:17;;;;;;;4.65;2.85;;;4.40;99.90;;;;;;5038709;28;20438;-81
2022/09/23 05:44:43;;;;;;;4.43;2.67;;;4.50;99.90;;;;;;5049344;28;20033;-81
2022/09/23 05:47:08;;;;;;;4.25;2.88;;;4.50;99.90;;;;;;5047482;28;20369;-82
2022/09/23 05:49:35;;;;;;;6.50;3.15;;;4.60;99.90;;;;;;5049965;28;20017;-81
2022/09/23 05:52:01;;;;;;;6.30;3.38;;;4.70;99.90;;;;;;5049636;28;20071;-81
2022/09/23 05:54:27;;;;;;;5.38;3.15;;;4.80;99.90;;;;;;5049273;28;20025;-81
2022/09/23 05:56:52;;;;;;;7.03;4.13;;;4.80;99.90;;;;;;5047948;28;20036;-81
2022/09/23 05:59:20;;;;;;;9.05;3.97;;;4.80;99.90;;;;;;5045727;28;20033;-83
2022/09/23 06:01:45;;;;;;;7.90;4.35;;;4.90;99.90;;;;;;5047737;28;20112;-81
2022/09/23 06:04:13;;;;;;;8.43;4.07;;;4.90;99.90;;;;;;5039875;28;20045;-81
2022/09/23 06:06:40;;;;;;;9.70;4.30;;;5.00;99.90;;;;;;5029858;28;20029;-81
2022/09/23 06:09:17;;;;;;;15.98;3.90;;;5.20;99.90;;;;;;5011529;28;20040;-81
2022/09/23 06:11:42;;;;;;;7.88;3.75;;;5.20;99.90;;;;;;5028722;28;20087;-80
2022/09/23 06:14:11;;;;;;;8.77;3.88;;;5.30;99.90;;;;;;5048469;28;20025;-80
2022/09/23 06:16:36;;;;;;;7.63;4.07;;;5.40;99.90;;;;;;5049706;28;20086;-81
2022/09/23 06:19:30;;;;;;;8.25;4.22;;;5.50;99.90;;;;;;5048244;28;20475;-81
2022/09/23 06:21:55;;;;;;;9.93;3.95;;;5.50;99.90;;;;;;5049567;28;20033;-81
2022/09/23 06:24:21;;;;;;;8.98;3.92;;;5.70;99.90;;;;;;5047282;28;20032;-81
2022/09/23 06:26:47;;;;;;;5.35;3.22;;;5.80;99.90;;;;;;5049384;28;20029;-81
2022/09/23 06:29:13;;;;;;;5.78;3.20;;;5.80;99.90;;;;;;5014144;28;1022215;-81
2022/09/23 06:31:40;;;;;;;6.03;3.58;;;5.90;99.90;;;;;;5049854;28;20029;-81
2022/09/23 06:34:12;;;;;;;8.10;3.80;;;6.00;99.90;;;;;;5050207;28;20097;-81
2022/09/23 06:36:42;;;;;;;6.28;3.20;;;6.10;99.90;;;;;;5052488;28;20025;-81
2022/09/23 06:39:07;;;;;;;8.32;3.63;;;6.20;99.90;;;;;;5050384;28;20035;-81
2022/09/23 06:41:33;;;;;;;6.72;3.58;;;6.30;99.90;;;;;;5050512;28;20395;-81
2022/09/23 06:43:58;;;;;;;9.57;3.65;;;6.30;99.90;;;;;;5050327;28;20025;-81
2022/09/23 06:46:24;;;;;;;7.55;4.50;;;6.50;99.90;;;;;;5051275;28;20547;-81
2022/09/23 06:48:50;;;;;;;8.10;3.88;;;6.60;99.90;;;;;;5050282;28;20426;-81
2022/09/23 06:51:19;;;;;;;6.13;3.30;;;6.80;99.90;;;;;;5042666;28;20033;-81
2022/09/23 06:53:48;;;;;;;7.10;3.50;;;6.90;99.90;;;;;;5046406;28;20447;-81
2022/09/23 06:56:15;;;;;;;6.50;3.72;;;7.10;99.90;;;;;;5051560;28;20129;-81
2022/09/23 06:58:42;;;;;;;7.93;4.10;;;7.30;99.90;;;;;;5049500;28;20033;-81
2022/09/23 07:01:14;;;;;;;9.73;4.25;;;7.50;99.90;;;;;;5050412;28;20059;-81
2022/09/23 07:03:40;;;;;;;12.50;4.28;;;7.70;99.90;;;;;;5048625;28;20064;-81
2022/09/23 07:06:07;;;;;;;9.45;4.40;;;7.90;99.90;;;;;;5050983;28;20033;-81
2022/09/23 07:08:33;;;;;;;7.30;4.07;;;8.10;99.90;;;;;;5032726;28;20067;-81
2022/09/23 07:11:01;;;;;;;6.22;4.07;;;8.30;99.90;;;;;;5029818;28;20108;-81
2022/09/23 07:13:28;;;;;;;7.18;4.30;;;8.40;99.90;;;;;;5031155;28;20032;-80
2022/09/23 07:15:57;;;;;;;9.02;4.00;;;8.60;99.90;;;;;;5037641;28;20063;-81
2022/09/23 07:18:24;;;;;;;6.47;3.85;;;8.90;99.90;;;;;;5049022;28;20033;-82
2022/09/23 07:20:51;;;;;;;6.65;3.83;;;9.10;99.90;;;;;;5049860;28;20029;-81
2022/09/23 07:23:17;;;;;;;3.78;2.47;;;9.30;99.90;;;;;;5042548;28;20050;-81
2022/09/23 07:25:43;;;;;;;4.13;3.00;;;9.50;99.90;;;;;;5047513;28;20104;-81
2022/09/23 07:28:09;;;;;;;4.25;3.17;;;9.60;99.90;;;;;;5049757;28;20037;-81
2022/09/23 07:30:39;;;;;;;4.97;2.95;;;9.70;99.90;;;;;;5049275;28;20041;-80
2022/09/23 07:33:05;;;;;;;5.07;2.80;;;9.90;99.90;;;;;;5049020;28;20070;-81
2022/09/23 07:35:31;;;;;;;7.47;2.90;;;10.10;99.90;;;;;;5043794;28;20099;-81
2022/09/23 07:37:56;;;;;;;4.07;2.83;;;10.20;99.90;;;;;;5048308;28;20187;-80
2022/09/23 07:40:31;;;;;;;3.63;2.28;;;10.40;99.90;;;;;;5038364;28;20036;-80
2022/09/23 07:43:20;;;;;;;4.68;2.50;;;10.50;99.90;;;;;;5042475;28;20119;-80
2022/09/23 07:45:46;;;;;;;3.33;2.38;;;10.70;99.90;;;;;;5044300;28;20044;-80
2022/09/23 07:48:11;;;;;;;4.70;3.00;;;10.80;99.90;;;;;;5047862;28;20024;-81
2022/09/23 07:50:38;;;;;;;3.67;2.63;;;11.00;99.90;;;;;;5048841;28;20029;-81
2022/09/23 07:53:05;;;;;;;2.92;2.20;;;11.10;99.90;;;;;;5047882;28;20021;-81
2022/09/23 07:55:30;;;;;;;2.70;2.17;;;11.20;99.90;;;;;;5048144;28;20021;-81
2022/09/23 07:57:56;;;;;;;4.20;2.33;;;11.40;99.90;;;;;;5046724;28;20033;-80
2022/09/23 08:00:27;;;;;;;2.85;2.17;;;11.60;99.90;;;;;;5030792;28;20064;-81
2022/09/23 08:02:53;;;;;;;3.40;2.08;;;11.70;99.90;;;;;;5034565;28;20107;-80
2022/09/23 08:05:18;;;;;;;2.60;2.10;;;11.90;99.90;;;;;;5039503;28;20497;-80
2022/09/23 08:07:44;;;;;;;3.75;2.22;;;12.00;99.90;;;;;;5028998;28;20028;-80
2022/09/23 08:10:09;;;;;;;3.92;2.13;;;12.20;99.90;;;;;;5027950;28;20043;-81
2022/09/23 08:12:47;;;;;;;5.43;2.58;;;12.30;99.90;;;;;;5036421;28;20377;-80
2022/09/23 08:15:13;;;;;;;2.28;1.80;;;12.40;99.90;;;;;;5033747;28;20043;-81
2022/09/23 08:17:38;;;;;;;5.47;2.20;;;12.50;99.90;;;;;;5045899;28;20403;-81
2022/09/23 08:20:44;;;;;;;2.65;2.08;;;12.60;99.90;;;;;;5048072;28;20029;-81
2022/09/23 08:23:15;;;;;;;4.13;2.63;;;12.80;99.90;;;;;;5025483;28;20037;-81
2022/09/23 08:25:41;;;;;;;2.58;2.13;;;12.80;99.90;;;;;;5035774;28;20034;-81
2022/09/23 08:28:07;;;;;;;3.55;2.60;;;12.80;99.90;;;;;;5041293;28;20040;-81
2022/09/23 08:30:33;;;;;;;4.78;2.92;;;12.90;99.90;;;;;;5047866;28;20059;-81
2022/09/23 08:32:58;;;;;;;4.13;2.78;;;13.00;99.90;;;;;;5047985;28;20029;-81
2022/09/23 08:35:24;;;;;;;4.07;2.67;;;13.00;99.90;;;;;;5048284;28;20376;-80
2022/09/23 08:37:50;;;;;;;4.65;2.85;;;13.10;99.90;;;;;;5045322;28;20392;-81
2022/09/23 08:40:17;;;;;;;3.53;2.38;;;13.30;99.90;;;;;;5047856;28;20040;-83
2022/09/23 08:42:48;;;;;;;3.05;2.45;;;13.50;99.90;;;;;;5042897;28;20072;-81
2022/09/23 08:45:29;;;;;;;4.10;2.47;;;13.50;99.90;;;;;;5028029;28;20107;-80
2022/09/23 08:48:05;;;;;;;5.50;2.90;;;13.60;99.90;;;;;;5046382;28;20031;-81
2022/09/23 08:50:44;;;;;;;4.50;2.70;;;13.70;99.90;;;;;;5048205;28;20036;-80
2022/09/23 08:53:35;;;;;;;6.65;3.22;;;13.80;99.90;;;;;;5047986;28;20096;-81
2022/09/23 08:56:10;;;;;;;5.60;3.22;;;13.90;99.90;;;;;;5047347;28;20021;-81
2022/09/23 08:59:13;;;;;;;5.22;2.80;;;13.90;99.90;;;;;;5046412;28;20278;-79
2022/09/23 09:01:45;;;;;;;4.88;2.90;;;14.00;99.90;;;;;;5031374;28;20082;-80
2022/09/23 09:04:23;;;;;;;;;;;14.00;99.90;;;;;;5039133;28;20373;-79
2022/09/23 09:06:57;;;;;;;5.43;2.55;;;14.10;99.90;;;;;;5042102;28;19909;-80
2022/09/23 09:10:02;;;;;;;9.23;2.63;;;14.20;99.90;;;;;;5035211;28;20032;-80
2022/09/23 09:12:39;;;;;;;4.15;2.60;;;14.30;99.90;;;;;;5036212;28;20108;-80
2022/09/23 09:15:14;;;;;;;4.57;2.40;;;14.40;99.90;;;;;;5047979;28;20075;-79
2022/09/23 09:18:05;;;;;;;2.95;2.20;;;14.50;99.90;;;;;;5030857;28;20518;-81
2022/09/23 09:20:40;;;;;;;3.28;2.40;;;14.60;98.40;;;;;;5028263;28;20048;-81
2022/09/23 09:23:20;;;;;;;3.17;2.08;;;14.80;99.90;;;;;;5041153;28;20030;-80
2022/09/23 09:25:56;;;;;;;4.80;2.60;;;15.00;97.10;;;;;;5028302;28;20033;-81
2022/09/23 09:28:32;;;;;;;2.05;1.83;;;15.20;97.70;;;;;;5027304;28;20021;-82
2022/09/23 09:31:20;;;;;;;3.28;2.15;;;15.10;94.40;;;;;;5027431;28;20026;-80
2022/09/23 09:33:50;;;;;;;2.70;1.95;;;15.00;93.80;;;;;;5035075;28;20032;-81
2022/09/23 09:36:41;;;;;;;2.65;1.67;;;15.00;93.80;;;;;;5044164;28;21059;-81
2022/09/23 09:39:16;;;;;;;3.35;1.90;;;15.10;92.60;;;;;;5031875;28;20035;-79
2022/09/23 09:41:46;;;;;;;3.03;2.00;;;15.10;92.50;;;;;;5036465;28;20120;-80
2022/09/23 09:44:30;;;;;;;3.17;1.70;;;15.30;92.90;;;;;;5047100;28;20044;-82
2022/09/23 09:47:13;;;;;;;1.90;1.40;;;15.80;92.00;;;;;;5047138;28;20033;-80
2022/09/23 09:50:02;;;;;;;2.20;1.73;;;16.20;90.40;;;;;;5046996;28;20037;-81
2022/09/23 09:52:28;;;;;;;1.95;1.55;;;16.30;91.10;;;;;;5042610;28;20044;-81
2022/09/23 09:55:13;;;;;;;9.52;2.00;;;16.60;90.00;;;;;;5034553;28;20021;-80
2022/09/23 09:57:46;;;;;;;2.03;1.50;;;16.80;90.40;;;;;;5034885;28;20033;-80
2022/09/23 10:00:17;;;;;;;2.20;1.42;;;17.10;81.60;;;;;;5047244;28;20050;-81
2022/09/23 10:02:43;;;;;;;1.95;1.50;;;17.10;82.50;;;;;;5045200;28;20033;-81
2022/09/23 10:05:31;;;;;;;2.50;1.58;;;17.20;81.50;;;;;;5045640;28;20102;-80
2022/09/23 10:08:17;;;;;;;2.00;1.30;;;17.50;80.90;;;;;;5046879;28;20657;-81
2022/09/23 10:10:58;;;;;;;1.30;1.20;;;17.80;75.80;;;;;;5038365;28;20033;-81
2022/09/23 10:13:23;;;;;;;1.63;1.25;;;18.10;76.30;;;;;;5046618;28;20044;-80
2022/09/23 10:15:53;;;;;;;1.75;1.10;;;18.50;75.40;;;;;;5049271;28;20372;-81
2022/09/23 10:18:44;;;;;;;1.85;1.52;;;18.60;71.50;;;;;;5050318;28;20438;-80
2022/09/23 10:21:13;;;;;;;1.35;1.23;;;18.50;72.00;;;;;;5037152;28;20029;-79
2022/09/23 10:23:47;;;;;;;1.95;1.30;;;18.40;70.50;;;;;;5048264;28;20146;-80
2022/09/23 10:26:16;;;;;;;2.90;1.60;;;18.50;72.70;;;;;;5049399;28;20029;-81
2022/09/23 10:28:51;;;;;;;2.88;1.70;;;18.40;71.90;;;;;;5049973;28;20060;-81
2022/09/23 10:31:25;;;;;;;1.75;1.35;;;18.60;77.20;;;;;;5050019;28;20060;-81
2022/09/23 10:33:59;;;;;;;1.40;1.23;;;18.70;73.50;;;;;;5048854;28;20029;-81
2022/09/23 10:36:25;;;;;;;1.80;1.45;;;18.90;72.00;;;;;;5048870;28;20029;-80
2022/09/23 10:48:04;;;;;;;1.83;1.33;;;18.70;59.80;;;;;;5037586;28;20043;-80
2022/09/23 10:50:47;;;;;;;2.30;1.10;;;18.80;61.40;;;;;;5049431;28;20029;-80
2022/09/23 10:53:46;;;;;;;1.05;1.00;;;20.10;58.90;;;;;;5050257;28;20040;-80
2022/09/23 10:56:26;;;;;;;1.20;1.10;;;21.60;53.60;;;;;;5050196;28;20028;-79
2022/09/23 10:59:26;;;;;;;1.25;1.15;;;21.00;52.70;;;;;;5042379;28;20063;-80
2022/09/23 11:02:23;;;;;;;1.10;1.00;;;21.50;54.00;;;;;;5046171;28;20041;-80
2022/09/23 11:05:10;;;;;;;1.67;1.33;;;21.50;52.60;;;;;;5030241;28;20029;-80
2022/09/23 11:07:57;;;;;;;1.38;1.25;;;21.20;53.10;;;;;;5029515;28;20109;-80
2022/09/23 11:10:59;;;;;;;1.00;0.95;;;21.40;53.20;;;;;;5034849;28;20131;-80
2022/09/23 11:13:41;;;;;;;1.83;1.02;;;21.70;54.20;;;;;;5048415;28;20352;-80
2022/09/23 11:16:39;;;;;;;1.10;1.00;;;22.60;50.70;;;;;;5036566;28;20038;-80
2022/09/23 11:19:21;;;;;;;1.30;1.20;;;23.20;50.50;;;;;;5016748;28;20038;-80
2022/09/23 11:22:17;;;;;;;1.20;1.08;;;23.30;52.40;;;;;;5028752;28;20030;-80
2022/09/23 11:25:12;;;;;;;2.70;1.00;;;23.30;51.60;;;;;;5027657;28;20033;-81
2022/09/23 11:28:08;;;;;;;1.15;1.05;;;23.20;48.10;;;;;;5048553;28;20040;-80
2022/09/23 11:30:53;;;;;;;1.23;1.13;;;23.80;49.10;;;;;;5047778;28;20148;-80
2022/09/23 11:33:43;;;;;;;1.05;0.90;;;25.70;46.00;;;;;;5034775;28;20044;-80
2022/09/23 11:36:40;;;;;;;1.40;1.25;;;25.90;45.80;;;;;;5049229;28;20032;-81
2022/09/23 11:39:15;;;;;;;1.38;1.13;;;26.60;44.90;;;;;;5047644;28;20040;-81
2022/09/23 11:41:43;;;;;;;1.35;1.10;;;26.50;45.30;;;;;;5047618;28;20029;-79
2022/09/23 11:44:40;;;;;;;1.08;0.98;;;26.90;43.60;;;;;;5049174;28;20021;-80
2022/09/23 11:47:12;;;;;;;2.03;1.30;;;27.50;42.10;;;;;;5049008;28;20029;-80
2022/09/23 11:49:54;;;;;;;1.40;1.08;;;27.70;43.10;;;;;;5029870;28;20112;-79
2022/09/23 11:52:34;;;;;;;1.75;1.23;;;28.30;41.80;;;;;;5045114;28;20660;-80
2022/09/23 11:55:10;;;;;;;1.03;0.97;;;29.60;38.70;;;;;;5045723;28;20468;-80
2022/09/23 11:57:43;;;;;;;1.88;1.40;;;32.00;35.30;;;;;;5036070;28;20144;-79
2022/09/23 12:00:21;;;;;;;1.27;1.10;;;32.90;33.00;;;;;;5048729;28;20025;-79
2022/09/23 12:03:10;;;;;;;2.10;1.00;;;33.70;31.90;;;;;;5038144;28;20377;-79
2022/09/23 12:05:44;;;;;;;1.35;1.15;;;33.80;30.50;;;;;;5039376;28;20115;-79
2022/09/23 12:08:31;;;;;;;1.58;1.20;;;31.70;34.40;;;;;;5047822;28;20029;-79
2022/09/23 12:11:21;;;;;;;1.38;1.27;;;30.40;35.70;;;;;;5047852;28;20041;-80
2022/09/23 12:14:20;;;;;;;2.03;1.42;;;28.00;39.30;;;;;;5048462;28;20021;-80
2022/09/23 12:17:06;;;;;;;1.25;1.00;;;26.00;42.10;;;;;;5046741;28;20032;-80
2022/09/23 12:19:33;;;;;;;1.63;1.23;;;24.80;46.10;;;;;;5048408;28;20021;-78
2022/09/23 12:22:24;;;;;;;1.40;1.30;;;24.40;45.40;;;;;;5046768;28;20032;-79
2022/09/23 12:24:55;;;;;;;;;;;24.20;44.40;;;;;;5046873;28;20025;-79
2022/09/23 12:27:36;;;;;;;1.27;1.17;;;24.40;44.40;;;;;;5044586;28;19912;-80
2022/09/23 12:30:13;;;;;;;1.88;1.30;;;24.20;43.50;;;;;;5046692;28;20049;-79
2022/09/23 12:32:41;;;;;;;1.80;1.50;;;23.30;44.70;;;;;;5048345;28;20071;-80
2022/09/23 12:35:24;;;;;;;1.17;1.08;;;22.60;48.40;;;;;;5047977;28;20121;-79
2022/09/23 12:37:50;;;;;;;1.23;1.13;;;24.90;48.50;;;;;;5047619;28;20029;-79
2022/09/23 12:40:32;;;;;;;1.20;1.10;;;28.40;40.00;;;;;;5046021;28;20040;-79
2022/09/23 12:43:00;;;;;;;1.20;1.10;;;28.40;38.20;;;;;;5045362;28;20056;-79
2022/09/23 12:45:30;;;;;;;1.38;1.20;;;30.00;39.90;;;;;;5048207;28;20032;-79
2022/09/23 12:48:00;;;;;;;1.70;1.40;;;31.20;36.10;;;;;;5047535;28;20532;-79
2022/09/23 12:50:49;;;;;;;1.17;1.00;;;28.60;37.20;;;;;;5045677;28;20284;-80
2022/09/23 12:53:50;;;;;;;1.25;1.15;;;27.90;40.90;;;;;;5039930;28;20025;-80
2022/09/23 12:56:17;;;;;;;1.05;0.95;;;27.50;37.50;;;;;;5037347;28;20052;-83
2022/09/23 12:58:42;;;;;;;1.35;1.23;;;28.10;37.70;;;;;;5043007;28;20026;-77
2022/09/23 13:01:14;;;;;;;1.00;0.90;;;31.00;33.00;;;;;;5043702;28;20036;-77
2022/09/23 13:06:43;;;;;;;1.00;0.90;;;27.30;36.60;;;;;;5027865;28;20115;-77
2022/09/23 13:09:20;;;;;;;1.25;1.15;;;27.20;38.80;;;;;;5028398;28;20035;-80
2022/09/23 13:11:47;;;;;;;1.15;1.00;;;30.10;35.70;;;;;;5029170;28;20033;-76
2022/09/23 13:14:17;;;;;;;1.20;1.10;;;32.50;32.60;;;;;;5045210;28;20033;-77
2022/09/23 13:16:44;;;;;;;0.98;0.90;;;34.10;31.00;;;;;;5047669;28;20028;-82
2022/09/23 13:19:39;;;;;;;0.82;0.82;;;36.00;30.60;;;;;;5048294;28;20495;-78
2022/09/23 13:22:09;;;;;;;0.95;0.85;;;37.00;28.70;;;;;;5045628;28;20040;-79
2022/09/23 13:25:00;;;;;;;1.05;0.93;;;39.00;28.60;;;;;;5047846;28;20028;-81
2022/09/23 13:27:29;;;;;;;1.10;1.00;;;37.00;27.10;;;;;;5046391;28;20033;-86
2022/09/23 13:30:16;;;;;;;1.10;1.00;;;33.90;28.50;;;;;;5034166;28;20083;-81
2022/09/23 13:32:50;;;;;;;1.13;1.02;;;34.50;27.50;;;;;;5044720;28;20119;-81
2022/09/23 13:35:25;;;;;;;2.30;1.30;;;35.20;28.90;;;;;;5029362;28;20140;-81
2022/09/23 13:37:51;;;;;;;1.80;1.60;;;36.30;28.00;;;;;;5027891;28;20018;-80